sensor_id;sensor_type;location;lat;lon;timestamp;P1;durP1;ratioP1;P2;durP2;ratioP2
1414;SDS011;702;49.466;11.086;2023-03-23T00:02:24;5.60;;;5.00;;
1414;SDS011;702;49.466;11.086;2023-03-23T00:04:52;6.27;;;4.30;;
1414;SDS011;702;49.466;11.086;2023-03-23T00:07:21;5.77;;;4.70;;
1414;SDS011;702;49.466;11.086;2023-03-23T00:09:53;6.13;;;5.03;;
1414;SDS011;702;49.466;11.086;2023-03-23T00:12:21;4.67;;;4.23;;
1414;SDS011;702;49.466;11.086;2023-03-23T00:14:54;6.20;;;4.83;;
1414;SDS011;702;49.466;11.086;2023-03-23T00:17:21;7.53;;;4.53;;
1414;SDS011;702;49.466;11.086;2023-03-23T00:19:50;5.17;;;4.43;;
1414;SDS011;702;49.466;11.086;2023-03-23T00:22:17;6.07;;;5.00;;
1414;SDS011;702;49.466;11.086;2023-03-23T00:24:48;5.77;;;5.27;;
1414;SDS011;702;49.466;11.086;2023-03-23T00:27:16;5.17;;;4.67;;
1414;SDS011;702;49.466;11.086;2023-03-23T00:29:43;5.67;;;5.17;;
1414;SDS011;702;49.466;11.086;2023-03-23T00:32:12;5.20;;;4.70;;
1414;SDS011;702;49.466;11.086;2023-03-23T00:34:41;6.90;;;5.20;;
1414;SDS011;702;49.466;11.086;2023-03-23T00:37:11;6.93;;;5.20;;
1414;SDS011;702;49.466;11.086;2023-03-23T00:39:41;6.30;;;4.80;;
1414;SDS011;702;49.466;11.086;2023-03-23T00:42:14;5.17;;;3.90;;
1414;SDS011;702;49.466;11.086;2023-03-23T00:44:42;4.87;;;3.73;;
1414;SDS011;702;49.466;11.086;2023-03-23T00:47:10;4.97;;;4.20;;
1414;SDS011;702;49.466;11.086;2023-03-23T00:49:39;4.27;;;3.83;;
1414;SDS011;702;49.466;11.086;2023-03-23T00:52:09;6.37;;;4.50;;
1414;SDS011;702;49.466;11.086;2023-03-23T00:54:37;4.90;;;3.67;;
1414;SDS011;702;49.466;11.086;2023-03-23T00:57:04;5.47;;;3.97;;
1414;SDS011;702;49.466;11.086;2023-03-23T00:59:33;4.33;;;3.93;;
1414;SDS011;702;49.466;11.086;2023-03-23T01:02:01;5.07;;;4.13;;
1414;SDS011;702;49.466;11.086;2023-03-23T01:04:30;6.40;;;4.10;;
1414;SDS011;702;49.466;11.086;2023-03-23T01:06:57;4.33;;;4.00;;
1414;SDS011;702;49.466;11.086;2023-03-23T01:09:26;6.23;;;4.27;;
1414;SDS011;702;49.466;11.086;2023-03-23T01:11:53;8.40;;;3.63;;
1414;SDS011;702;49.466;11.086;2023-03-23T01:14:22;7.37;;;4.27;;
1414;SDS011;702;49.466;11.086;2023-03-23T01:16:51;4.70;;;4.30;;
1414;SDS011;702;49.466;11.086;2023-03-23T01:19:19;4.30;;;3.90;;
1414;SDS011;702;49.466;11.086;2023-03-23T01:21:46;6.63;;;4.20;;
1414;SDS011;702;49.466;11.086;2023-03-23T01:24:13;5.30;;;4.63;;
1414;SDS011;702;49.466;11.086;2023-03-23T01:26:41;4.60;;;4.20;;
1414;SDS011;702;49.466;11.086;2023-03-23T01:29:08;6.30;;;4.20;;
1414;SDS011;702;49.466;11.086;2023-03-23T01:31:35;4.43;;;3.93;;
1414;SDS011;702;49.466;11.086;2023-03-23T01:34:05;4.07;;;3.67;;
1414;SDS011;702;49.466;11.086;2023-03-23T01:36:33;5.03;;;4.53;;
1414;SDS011;702;49.466;11.086;2023-03-23T01:39:01;6.70;;;4.90;;
1414;SDS011;702;49.466;11.086;2023-03-23T01:41:30;4.77;;;4.27;;
1414;SDS011;702;49.466;11.086;2023-03-23T01:43:59;5.00;;;4.00;;
1414;SDS011;702;49.466;11.086;2023-03-23T01:46:30;5.60;;;4.53;;
1414;SDS011;702;49.466;11.086;2023-03-23T01:49:02;4.93;;;4.53;;
1414;SDS011;702;49.466;11.086;2023-03-23T01:51:35;4.93;;;4.43;;
1414;SDS011;702;49.466;11.086;2023-03-23T01:54:07;4.77;;;4.10;;
1414;SDS011;702;49.466;11.086;2023-03-23T01:56:39;5.70;;;4.50;;
1414;SDS011;702;49.466;11.086;2023-03-23T01:59:13;6.70;;;3.90;;
1414;SDS011;702;49.466;11.086;2023-03-23T02:01:41;5.70;;;3.77;;
1414;SDS011;702;49.466;11.086;2023-03-23T02:04:11;5.90;;;3.57;;
1414;SDS011;702;49.466;11.086;2023-03-23T02:06:41;6.17;;;3.90;;
1414;SDS011;702;49.466;11.086;2023-03-23T02:09:09;4.00;;;3.70;;
1414;SDS011;702;49.466;11.086;2023-03-23T02:11:39;6.17;;;3.50;;
1414;SDS011;702;49.466;11.086;2023-03-23T02:14:06;3.97;;;3.57;;
1414;SDS011;702;49.466;11.086;2023-03-23T02:16:34;4.60;;;4.10;;
1414;SDS011;702;49.466;11.086;2023-03-23T02:19:18;4.63;;;3.70;;
1414;SDS011;702;49.466;11.086;2023-03-23T02:22:21;4.30;;;3.87;;
1414;SDS011;702;49.466;11.086;2023-03-23T02:25:11;3.37;;;3.07;;
1414;SDS011;702;49.466;11.086;2023-03-23T02:28:04;3.57;;;3.27;;
1414;SDS011;702;49.466;11.086;2023-03-23T02:30:48;4.37;;;3.77;;
1414;SDS011;702;49.466;11.086;2023-03-23T02:33:35;3.20;;;2.90;;
1414;SDS011;702;49.466;11.086;2023-03-23T02:36:10;2.93;;;2.73;;
1414;SDS011;702;49.466;11.086;2023-03-23T02:38:48;3.97;;;3.30;;
1414;SDS011;702;49.466;11.086;2023-03-23T02:41:25;3.70;;;3.40;;
1414;SDS011;702;49.466;11.086;2023-03-23T02:43:59;3.17;;;2.87;;
1414;SDS011;702;49.466;11.086;2023-03-23T02:46:30;3.30;;;3.00;;
1414;SDS011;702;49.466;11.086;2023-03-23T02:48:59;3.07;;;2.77;;
1414;SDS011;702;49.466;11.086;2023-03-23T02:51:30;2.90;;;2.67;;
1414;SDS011;702;49.466;11.086;2023-03-23T02:53:59;3.70;;;2.90;;
1414;SDS011;702;49.466;11.086;2023-03-23T02:56:28;3.33;;;2.90;;
1414;SDS011;702;49.466;11.086;2023-03-23T02:58:58;3.33;;;2.63;;
1414;SDS011;702;49.466;11.086;2023-03-23T03:04:33;2.80;;;2.60;;
1414;SDS011;702;49.466;11.086;2023-03-23T03:07:28;3.97;;;2.50;;
1414;SDS011;702;49.466;11.086;2023-03-23T03:10:04;2.80;;;2.60;;
1414;SDS011;702;49.466;11.086;2023-03-23T03:12:42;2.70;;;2.30;;
1414;SDS011;702;49.466;11.086;2023-03-23T03:15:21;2.53;;;2.33;;
1414;SDS011;702;49.466;11.086;2023-03-23T03:17:57;3.00;;;2.40;;
1414;SDS011;702;49.466;11.086;2023-03-23T03:20:32;3.70;;;2.70;;
1414;SDS011;702;49.466;11.086;2023-03-23T03:23:04;4.07;;;2.60;;
1414;SDS011;702;49.466;11.086;2023-03-23T03:25:34;2.60;;;2.40;;
1414;SDS011;702;49.466;11.086;2023-03-23T03:28:02;4.73;;;2.60;;
1414;SDS011;702;49.466;11.086;2023-03-23T03:30:31;2.93;;;2.60;;
1414;SDS011;702;49.466;11.086;2023-03-23T03:33:00;5.23;;;2.77;;
1414;SDS011;702;49.466;11.086;2023-03-23T03:35:30;2.73;;;2.53;;
1414;SDS011;702;49.466;11.086;2023-03-23T03:38:04;3.63;;;2.70;;
1414;SDS011;702;49.466;11.086;2023-03-23T03:40:33;2.83;;;2.10;;
1414;SDS011;702;49.466;11.086;2023-03-23T03:43:00;3.83;;;2.87;;
1414;SDS011;702;49.466;11.086;2023-03-23T03:45:28;2.77;;;2.57;;
1414;SDS011;702;49.466;11.086;2023-03-23T03:47:58;2.50;;;2.30;;
1414;SDS011;702;49.466;11.086;2023-03-23T03:50:27;2.60;;;2.30;;
1414;SDS011;702;49.466;11.086;2023-03-23T03:52:56;3.60;;;2.50;;
1414;SDS011;702;49.466;11.086;2023-03-23T03:55:23;3.00;;;2.70;;
1414;SDS011;702;49.466;11.086;2023-03-23T03:57:54;3.67;;;2.70;;
1414;SDS011;702;49.466;11.086;2023-03-23T04:00:23;2.80;;;2.33;;
1414;SDS011;702;49.466;11.086;2023-03-23T04:02:51;2.93;;;2.57;;
1414;SDS011;702;49.466;11.086;2023-03-23T04:05:19;4.67;;;2.50;;
1414;SDS011;702;49.466;11.086;2023-03-23T04:07:47;2.57;;;2.00;;
1414;SDS011;702;49.466;11.086;2023-03-23T04:10:18;2.43;;;2.23;;
1414;SDS011;702;49.466;11.086;2023-03-23T04:12:50;2.63;;;2.40;;
1414;SDS011;702;49.466;11.086;2023-03-23T04:15:18;2.50;;;2.30;;
1414;SDS011;702;49.466;11.086;2023-03-23T04:17:45;3.50;;;2.40;;
1414;SDS011;702;49.466;11.086;2023-03-23T04:20:13;2.20;;;2.00;;
1414;SDS011;702;49.466;11.086;2023-03-23T04:22:43;2.40;;;2.20;;
1414;SDS011;702;49.466;11.086;2023-03-23T04:25:14;4.00;;;2.20;;
1414;SDS011;702;49.466;11.086;2023-03-23T04:27:46;2.33;;;1.97;;
1414;SDS011;702;49.466;11.086;2023-03-23T04:30:18;2.40;;;1.87;;
1414;SDS011;702;49.466;11.086;2023-03-23T04:32:46;2.97;;;2.30;;
1414;SDS011;702;49.466;11.086;2023-03-23T04:35:18;2.60;;;2.10;;
1414;SDS011;702;49.466;11.086;2023-03-23T04:37:46;4.57;;;2.10;;
1414;SDS011;702;49.466;11.086;2023-03-23T04:40:15;2.97;;;2.17;;
1414;SDS011;702;49.466;11.086;2023-03-23T04:42:45;3.50;;;2.77;;
1414;SDS011;702;49.466;11.086;2023-03-23T04:45:14;5.07;;;2.70;;
1414;SDS011;702;49.466;11.086;2023-03-23T04:47:46;2.30;;;2.00;;
1414;SDS011;702;49.466;11.086;2023-03-23T04:50:19;2.70;;;2.10;;
1414;SDS011;702;49.466;11.086;2023-03-23T04:52:49;3.00;;;2.60;;
1414;SDS011;702;49.466;11.086;2023-03-23T04:55:18;4.70;;;2.37;;
1414;SDS011;702;49.466;11.086;2023-03-23T04:57:46;2.87;;;2.60;;
1414;SDS011;702;49.466;11.086;2023-03-23T05:00:14;2.57;;;2.00;;
1414;SDS011;702;49.466;11.086;2023-03-23T05:02:43;2.97;;;2.37;;
1414;SDS011;702;49.466;11.086;2023-03-23T05:05:13;2.73;;;2.03;;
1414;SDS011;702;49.466;11.086;2023-03-23T05:07:41;3.40;;;2.60;;
1414;SDS011;702;49.466;11.086;2023-03-23T05:10:09;3.47;;;2.50;;
1414;SDS011;702;49.466;11.086;2023-03-23T05:12:39;3.07;;;2.40;;
1414;SDS011;702;49.466;11.086;2023-03-23T05:15:07;3.53;;;2.60;;
1414;SDS011;702;49.466;11.086;2023-03-23T05:17:38;2.83;;;2.47;;
1414;SDS011;702;49.466;11.086;2023-03-23T05:20:09;4.10;;;2.93;;
1414;SDS011;702;49.466;11.086;2023-03-23T05:22:39;2.23;;;2.03;;
1414;SDS011;702;49.466;11.086;2023-03-23T05:25:09;3.17;;;2.40;;
1414;SDS011;702;49.466;11.086;2023-03-23T05:27:39;2.47;;;2.27;;
1414;SDS011;702;49.466;11.086;2023-03-23T05:30:09;2.97;;;2.73;;
1414;SDS011;702;49.466;11.086;2023-03-23T05:32:40;3.83;;;2.63;;
1414;SDS011;702;49.466;11.086;2023-03-23T05:35:07;2.60;;;2.40;;
1414;SDS011;702;49.466;11.086;2023-03-23T05:37:35;2.60;;;2.33;;
1414;SDS011;702;49.466;11.086;2023-03-23T05:40:02;3.80;;;2.77;;
1414;SDS011;702;49.466;11.086;2023-03-23T05:42:31;2.87;;;2.30;;
1414;SDS011;702;49.466;11.086;2023-03-23T05:45:00;3.67;;;2.33;;
1414;SDS011;702;49.466;11.086;2023-03-23T05:47:28;2.93;;;2.50;;
1414;SDS011;702;49.466;11.086;2023-03-23T05:49:56;3.33;;;2.50;;
1414;SDS011;702;49.466;11.086;2023-03-23T05:52:23;3.83;;;2.80;;
1414;SDS011;702;49.466;11.086;2023-03-23T05:54:51;3.60;;;3.10;;
1414;SDS011;702;49.466;11.086;2023-03-23T05:57:19;3.80;;;2.93;;
1414;SDS011;702;49.466;11.086;2023-03-23T05:59:47;2.70;;;2.50;;
1414;SDS011;702;49.466;11.086;2023-03-23T06:02:16;3.20;;;2.90;;
1414;SDS011;702;49.466;11.086;2023-03-23T06:04:43;7.80;;;3.10;;
1414;SDS011;702;49.466;11.086;2023-03-23T06:07:10;3.20;;;2.47;;
1414;SDS011;702;49.466;11.086;2023-03-23T06:09:40;3.40;;;2.80;;
1414;SDS011;702;49.466;11.086;2023-03-23T06:12:07;2.60;;;2.40;;
1414;SDS011;702;49.466;11.086;2023-03-23T06:14:36;2.60;;;2.40;;
1414;SDS011;702;49.466;11.086;2023-03-23T06:17:04;3.40;;;2.67;;
1414;SDS011;702;49.466;11.086;2023-03-23T06:19:34;4.33;;;2.97;;
1414;SDS011;702;49.466;11.086;2023-03-23T06:22:01;5.03;;;3.07;;
1414;SDS011;702;49.466;11.086;2023-03-23T06:24:30;3.70;;;3.00;;
1414;SDS011;702;49.466;11.086;2023-03-23T06:26:58;3.30;;;3.00;;
1414;SDS011;702;49.466;11.086;2023-03-23T06:29:26;4.43;;;3.50;;
1414;SDS011;702;49.466;11.086;2023-03-23T06:31:54;4.10;;;3.20;;
1414;SDS011;702;49.466;11.086;2023-03-23T06:34:24;5.30;;;3.43;;
1414;SDS011;702;49.466;11.086;2023-03-23T06:36:53;4.63;;;3.43;;
1414;SDS011;702;49.466;11.086;2023-03-23T06:39:20;3.60;;;3.30;;
1414;SDS011;702;49.466;11.086;2023-03-23T06:41:48;5.00;;;3.30;;
1414;SDS011;702;49.466;11.086;2023-03-23T06:44:15;9.30;;;3.80;;
1414;SDS011;702;49.466;11.086;2023-03-23T06:46:42;8.97;;;4.43;;
1414;SDS011;702;49.466;11.086;2023-03-23T06:49:09;3.90;;;3.10;;
1414;SDS011;702;49.466;11.086;2023-03-23T06:51:37;3.80;;;3.13;;
1414;SDS011;702;49.466;11.086;2023-03-23T06:54:05;4.60;;;3.50;;
1414;SDS011;702;49.466;11.086;2023-03-23T06:56:33;5.00;;;3.40;;
1414;SDS011;702;49.466;11.086;2023-03-23T06:59:01;4.90;;;3.20;;
1414;SDS011;702;49.466;11.086;2023-03-23T07:01:29;3.63;;;3.20;;
1414;SDS011;702;49.466;11.086;2023-03-23T07:03:57;7.97;;;3.40;;
1414;SDS011;702;49.466;11.086;2023-03-23T07:06:24;5.43;;;3.20;;
1414;SDS011;702;49.466;11.086;2023-03-23T07:08:52;6.27;;;3.57;;
1414;SDS011;702;49.466;11.086;2023-03-23T07:11:21;5.30;;;3.57;;
1414;SDS011;702;49.466;11.086;2023-03-23T07:13:49;5.10;;;3.73;;
1414;SDS011;702;49.466;11.086;2023-03-23T07:16:16;6.83;;;3.80;;
1414;SDS011;702;49.466;11.086;2023-03-23T07:18:44;4.43;;;3.93;;
1414;SDS011;702;49.466;11.086;2023-03-23T07:21:13;5.20;;;3.40;;
1414;SDS011;702;49.466;11.086;2023-03-23T07:23:40;5.53;;;4.20;;
1414;SDS011;702;49.466;11.086;2023-03-23T07:26:07;4.50;;;3.73;;
1414;SDS011;702;49.466;11.086;2023-03-23T07:28:36;5.70;;;3.90;;
1414;SDS011;702;49.466;11.086;2023-03-23T07:31:05;4.07;;;3.67;;
1414;SDS011;702;49.466;11.086;2023-03-23T07:33:33;5.50;;;4.20;;
1414;SDS011;702;49.466;11.086;2023-03-23T07:36:01;8.80;;;4.77;;
1414;SDS011;702;49.466;11.086;2023-03-23T07:38:29;5.70;;;3.77;;
1414;SDS011;702;49.466;11.086;2023-03-23T07:40:56;8.20;;;4.43;;
1414;SDS011;702;49.466;11.086;2023-03-23T07:43:24;5.83;;;4.03;;
1414;SDS011;702;49.466;11.086;2023-03-23T07:45:53;5.50;;;4.37;;
1414;SDS011;702;49.466;11.086;2023-03-23T07:48:20;5.90;;;4.50;;
1414;SDS011;702;49.466;11.086;2023-03-23T07:50:48;5.17;;;4.67;;
1414;SDS011;702;49.466;11.086;2023-03-23T07:53:15;4.90;;;4.30;;
1414;SDS011;702;49.466;11.086;2023-03-23T07:55:42;4.90;;;4.40;;
1414;SDS011;702;49.466;11.086;2023-03-23T07:58:10;8.30;;;3.80;;
1414;SDS011;702;49.466;11.086;2023-03-23T08:00:42;5.20;;;4.30;;
1414;SDS011;702;49.466;11.086;2023-03-23T08:03:11;6.87;;;4.60;;
1414;SDS011;702;49.466;11.086;2023-03-23T08:05:38;6.23;;;3.80;;
1414;SDS011;702;49.466;11.086;2023-03-23T08:08:07;10.57;;;4.93;;
1414;SDS011;702;49.466;11.086;2023-03-23T08:10:36;6.00;;;4.20;;
1414;SDS011;702;49.466;11.086;2023-03-23T08:13:04;6.47;;;4.50;;
1414;SDS011;702;49.466;11.086;2023-03-23T08:15:32;4.83;;;4.40;;
1414;SDS011;702;49.466;11.086;2023-03-23T08:18:02;7.10;;;4.50;;
1414;SDS011;702;49.466;11.086;2023-03-23T08:20:31;8.13;;;4.63;;
1414;SDS011;702;49.466;11.086;2023-03-23T08:22:59;6.30;;;4.70;;
1414;SDS011;702;49.466;11.086;2023-03-23T08:25:28;7.90;;;5.00;;
1414;SDS011;702;49.466;11.086;2023-03-23T08:27:57;5.30;;;4.30;;
1414;SDS011;702;49.466;11.086;2023-03-23T08:30:27;5.43;;;4.63;;
1414;SDS011;702;49.466;11.086;2023-03-23T08:32:57;8.07;;;5.07;;
1414;SDS011;702;49.466;11.086;2023-03-23T08:35:27;4.93;;;4.43;;
1414;SDS011;702;49.466;11.086;2023-03-23T08:37:55;6.60;;;4.20;;
1414;SDS011;702;49.466;11.086;2023-03-23T08:40:23;7.50;;;4.50;;
1414;SDS011;702;49.466;11.086;2023-03-23T08:42:52;7.33;;;4.50;;
1414;SDS011;702;49.466;11.086;2023-03-23T08:45:20;5.37;;;4.97;;
1414;SDS011;702;49.466;11.086;2023-03-23T08:47:52;6.57;;;5.27;;
1414;SDS011;702;49.466;11.086;2023-03-23T08:50:22;5.90;;;4.80;;
1414;SDS011;702;49.466;11.086;2023-03-23T08:52:53;5.80;;;5.00;;
1414;SDS011;702;49.466;11.086;2023-03-23T08:55:22;5.47;;;4.70;;
1414;SDS011;702;49.466;11.086;2023-03-23T08:57:49;6.43;;;5.10;;
1414;SDS011;702;49.466;11.086;2023-03-23T09:00:18;8.80;;;4.80;;
1414;SDS011;702;49.466;11.086;2023-03-23T09:02:50;6.33;;;4.63;;
1414;SDS011;702;49.466;11.086;2023-03-23T09:05:22;7.33;;;5.00;;
1414;SDS011;702;49.466;11.086;2023-03-23T09:07:52;5.03;;;4.63;;
1414;SDS011;702;49.466;11.086;2023-03-23T09:10:25;7.97;;;4.83;;
1414;SDS011;702;49.466;11.086;2023-03-23T09:12:55;6.40;;;4.70;;
1414;SDS011;702;49.466;11.086;2023-03-23T09:15:24;8.53;;;4.70;;
1414;SDS011;702;49.466;11.086;2023-03-23T09:17:53;5.30;;;4.80;;
1414;SDS011;702;49.466;11.086;2023-03-23T09:20:23;7.63;;;5.50;;
1414;SDS011;702;49.466;11.086;2023-03-23T09:22:52;6.57;;;5.83;;
1414;SDS011;702;49.466;11.086;2023-03-23T09:25:24;7.00;;;5.23;;
1414;SDS011;702;49.466;11.086;2023-03-23T09:27:54;7.03;;;5.07;;
1414;SDS011;702;49.466;11.086;2023-03-23T09:30:24;5.70;;;5.10;;
1414;SDS011;702;49.466;11.086;2023-03-23T09:32:55;5.83;;;4.53;;
1414;SDS011;702;49.466;11.086;2023-03-23T09:35:26;8.80;;;4.03;;
1414;SDS011;702;49.466;11.086;2023-03-23T09:37:54;4.93;;;4.43;;
1414;SDS011;702;49.466;11.086;2023-03-23T09:40:23;4.47;;;4.10;;
1414;SDS011;702;49.466;11.086;2023-03-23T09:42:58;3.80;;;3.43;;
1414;SDS011;702;49.466;11.086;2023-03-23T09:45:43;5.60;;;4.13;;
1414;SDS011;702;49.466;11.086;2023-03-23T09:51:22;4.20;;;3.80;;
1414;SDS011;702;49.466;11.086;2023-03-23T09:54:01;4.40;;;3.77;;
1414;SDS011;702;49.466;11.086;2023-03-23T09:56:34;10.37;;;4.10;;
1414;SDS011;702;49.466;11.086;2023-03-23T09:59:03;6.07;;;5.00;;
1414;SDS011;702;49.466;11.086;2023-03-23T10:01:40;4.67;;;3.77;;
1414;SDS011;702;49.466;11.086;2023-03-23T10:04:13;7.40;;;4.50;;
1414;SDS011;702;49.466;11.086;2023-03-23T10:06:48;4.70;;;4.20;;
1414;SDS011;702;49.466;11.086;2023-03-23T10:09:17;5.93;;;3.47;;
1414;SDS011;702;49.466;11.086;2023-03-23T10:11:51;5.30;;;3.80;;
1414;SDS011;702;49.466;11.086;2023-03-23T10:14:33;4.53;;;3.07;;
1414;SDS011;702;49.466;11.086;2023-03-23T10:17:13;5.40;;;3.83;;
1414;SDS011;702;49.466;11.086;2023-03-23T10:19:46;8.90;;;3.93;;
1414;SDS011;702;49.466;11.086;2023-03-23T10:22:21;3.80;;;3.50;;
1414;SDS011;702;49.466;11.086;2023-03-23T10:24:55;7.03;;;4.10;;
1414;SDS011;702;49.466;11.086;2023-03-23T10:27:33;7.70;;;4.50;;
1414;SDS011;702;49.466;11.086;2023-03-23T10:30:11;5.47;;;3.60;;
1414;SDS011;702;49.466;11.086;2023-03-23T10:32:45;4.97;;;3.33;;
1414;SDS011;702;49.466;11.086;2023-03-23T10:35:21;4.73;;;3.10;;
1414;SDS011;702;49.466;11.086;2023-03-23T10:37:55;3.40;;;3.10;;
1414;SDS011;702;49.466;11.086;2023-03-23T10:40:28;4.83;;;3.30;;
1414;SDS011;702;49.466;11.086;2023-03-23T10:42:59;5.83;;;4.13;;
1414;SDS011;702;49.466;11.086;2023-03-23T10:45:27;3.97;;;3.43;;
1414;SDS011;702;49.466;11.086;2023-03-23T10:47:59;5.20;;;3.40;;
1414;SDS011;702;49.466;11.086;2023-03-23T10:50:48;6.37;;;3.60;;
1414;SDS011;702;49.466;11.086;2023-03-23T10:53:21;3.00;;;2.80;;
1414;SDS011;702;49.466;11.086;2023-03-23T10:55:52;2.97;;;2.63;;
1414;SDS011;702;49.466;11.086;2023-03-23T10:58:26;3.40;;;2.20;;
1414;SDS011;702;49.466;11.086;2023-03-23T11:00:56;3.00;;;2.47;;
1414;SDS011;702;49.466;11.086;2023-03-23T11:03:29;3.23;;;2.57;;
1414;SDS011;702;49.466;11.086;2023-03-23T11:06:07;4.40;;;2.20;;
1414;SDS011;702;49.466;11.086;2023-03-23T11:08:46;3.23;;;2.10;;
1414;SDS011;702;49.466;11.086;2023-03-23T11:11:16;2.73;;;2.10;;
1414;SDS011;702;49.466;11.086;2023-03-23T11:13:49;3.47;;;2.20;;
1414;SDS011;702;49.466;11.086;2023-03-23T11:16:25;3.33;;;2.63;;
1414;SDS011;702;49.466;11.086;2023-03-23T11:18:54;2.63;;;2.43;;
1414;SDS011;702;49.466;11.086;2023-03-23T11:21:23;3.10;;;2.13;;
1414;SDS011;702;49.466;11.086;2023-03-23T11:23:53;2.53;;;2.33;;
1414;SDS011;702;49.466;11.086;2023-03-23T11:26:24;2.77;;;2.33;;
1414;SDS011;702;49.466;11.086;2023-03-23T11:28:57;3.33;;;2.20;;
1414;SDS011;702;49.466;11.086;2023-03-23T11:31:32;3.70;;;1.90;;
1414;SDS011;702;49.466;11.086;2023-03-23T11:34:02;3.63;;;2.50;;
1414;SDS011;702;49.466;11.086;2023-03-23T11:36:41;5.80;;;2.67;;
1414;SDS011;702;49.466;11.086;2023-03-23T11:39:21;3.00;;;2.00;;
1414;SDS011;702;49.466;11.086;2023-03-23T11:41:52;2.30;;;2.10;;
1414;SDS011;702;49.466;11.086;2023-03-23T11:44:23;2.93;;;2.03;;
1414;SDS011;702;49.466;11.086;2023-03-23T11:47:00;2.53;;;2.33;;
1414;SDS011;702;49.466;11.086;2023-03-23T11:49:35;2.67;;;2.43;;
1414;SDS011;702;49.466;11.086;2023-03-23T11:52:11;2.73;;;2.37;;
1414;SDS011;702;49.466;11.086;2023-03-23T11:54:46;2.83;;;2.60;;
1414;SDS011;702;49.466;11.086;2023-03-23T11:57:22;3.27;;;2.40;;
1414;SDS011;702;49.466;11.086;2023-03-23T11:59:51;2.47;;;2.13;;
1414;SDS011;702;49.466;11.086;2023-03-23T12:02:26;2.87;;;2.17;;
1414;SDS011;702;49.466;11.086;2023-03-23T12:08:15;3.33;;;2.37;;
1414;SDS011;702;49.466;11.086;2023-03-23T12:11:17;2.67;;;2.00;;
1414;SDS011;702;49.466;11.086;2023-03-23T12:13:58;5.90;;;2.57;;
1414;SDS011;702;49.466;11.086;2023-03-23T12:16:40;11.20;;;4.10;;
1414;SDS011;702;49.466;11.086;2023-03-23T12:19:21;2.90;;;2.50;;
1414;SDS011;702;49.466;11.086;2023-03-23T12:21:58;3.27;;;2.83;;
1414;SDS011;702;49.466;11.086;2023-03-23T12:24:38;3.60;;;2.53;;
1414;SDS011;702;49.466;11.086;2023-03-23T12:27:18;2.73;;;2.00;;
1414;SDS011;702;49.466;11.086;2023-03-23T12:29:58;2.50;;;2.30;;
1414;SDS011;702;49.466;11.086;2023-03-23T12:32:42;4.10;;;2.43;;
1414;SDS011;702;49.466;11.086;2023-03-23T12:35:22;2.43;;;2.23;;
1414;SDS011;702;49.466;11.086;2023-03-23T12:38:03;3.83;;;2.30;;
1414;SDS011;702;49.466;11.086;2023-03-23T12:40:59;3.37;;;2.33;;
1414;SDS011;702;49.466;11.086;2023-03-23T12:43:38;1.63;;;1.53;;
1414;SDS011;702;49.466;11.086;2023-03-23T12:46:21;2.30;;;1.70;;
1414;SDS011;702;49.466;11.086;2023-03-23T12:49:26;1.90;;;1.80;;
1414;SDS011;702;49.466;11.086;2023-03-23T12:52:02;3.30;;;1.67;;
1414;SDS011;702;49.466;11.086;2023-03-23T12:54:42;2.27;;;1.53;;
1414;SDS011;702;49.466;11.086;2023-03-23T12:57:19;1.57;;;1.47;;
1414;SDS011;702;49.466;11.086;2023-03-23T12:59:57;2.57;;;1.70;;
1414;SDS011;702;49.466;11.086;2023-03-23T13:02:37;2.43;;;1.40;;
1414;SDS011;702;49.466;11.086;2023-03-23T13:05:11;3.73;;;1.30;;
1414;SDS011;702;49.466;11.086;2023-03-23T13:07:55;1.67;;;1.47;;
1414;SDS011;702;49.466;11.086;2023-03-23T13:10:27;2.10;;;1.00;;
1414;SDS011;702;49.466;11.086;2023-03-23T13:12:59;1.80;;;1.70;;
1414;SDS011;702;49.466;11.086;2023-03-23T13:15:30;2.47;;;1.27;;
1414;SDS011;702;49.466;11.086;2023-03-23T13:18:07;1.40;;;1.27;;
1414;SDS011;702;49.466;11.086;2023-03-23T13:20:52;2.43;;;1.50;;
1414;SDS011;702;49.466;11.086;2023-03-23T13:23:28;1.57;;;1.37;;
1414;SDS011;702;49.466;11.086;2023-03-23T13:26:02;1.40;;;1.30;;
1414;SDS011;702;49.466;11.086;2023-03-23T13:28:44;3.20;;;1.90;;
1414;SDS011;702;49.466;11.086;2023-03-23T13:31:20;2.60;;;2.00;;
1414;SDS011;702;49.466;11.086;2023-03-23T13:33:59;2.13;;;1.60;;
1414;SDS011;702;49.466;11.086;2023-03-23T13:36:33;1.43;;;1.33;;
1414;SDS011;702;49.466;11.086;2023-03-23T13:39:03;1.47;;;1.37;;
1414;SDS011;702;49.466;11.086;2023-03-23T13:41:34;3.10;;;1.57;;
1414;SDS011;702;49.466;11.086;2023-03-23T13:44:16;3.47;;;2.10;;
1414;SDS011;702;49.466;11.086;2023-03-23T13:46:54;1.93;;;1.60;;
1414;SDS011;702;49.466;11.086;2023-03-23T13:49:24;2.20;;;1.83;;
1414;SDS011;702;49.466;11.086;2023-03-23T13:52:00;2.10;;;1.80;;
1414;SDS011;702;49.466;11.086;2023-03-23T13:54:42;2.63;;;2.23;;
1414;SDS011;702;49.466;11.086;2023-03-23T13:57:26;3.83;;;1.80;;
1414;SDS011;702;49.466;11.086;2023-03-23T14:00:11;1.57;;;1.43;;
1414;SDS011;702;49.466;11.086;2023-03-23T14:03:00;2.60;;;1.90;;
1414;SDS011;702;49.466;11.086;2023-03-23T14:05:34;2.60;;;1.97;;
1414;SDS011;702;49.466;11.086;2023-03-23T14:08:10;2.00;;;1.80;;
1414;SDS011;702;49.466;11.086;2023-03-23T14:10:49;4.57;;;1.70;;
1414;SDS011;702;49.466;11.086;2023-03-23T14:13:23;3.17;;;1.70;;
1414;SDS011;702;49.466;11.086;2023-03-23T14:15:56;4.00;;;1.90;;
1414;SDS011;702;49.466;11.086;2023-03-23T14:18:29;2.20;;;1.40;;
1414;SDS011;702;49.466;11.086;2023-03-23T14:21:02;2.30;;;2.10;;
1414;SDS011;702;49.466;11.086;2023-03-23T14:23:32;2.07;;;1.87;;
1414;SDS011;702;49.466;11.086;2023-03-23T14:26:01;3.23;;;1.87;;
1414;SDS011;702;49.466;11.086;2023-03-23T14:28:38;1.87;;;1.77;;
1414;SDS011;702;49.466;11.086;2023-03-23T14:31:13;3.00;;;2.63;;
1414;SDS011;702;49.466;11.086;2023-03-23T14:33:45;3.80;;;2.43;;
1414;SDS011;702;49.466;11.086;2023-03-23T14:36:14;2.60;;;1.60;;
1414;SDS011;702;49.466;11.086;2023-03-23T14:38:48;1.87;;;1.77;;
1414;SDS011;702;49.466;11.086;2023-03-23T14:41:22;2.43;;;2.00;;
1414;SDS011;702;49.466;11.086;2023-03-23T14:43:49;1.90;;;1.80;;
1414;SDS011;702;49.466;11.086;2023-03-23T14:46:17;2.70;;;2.07;;
1414;SDS011;702;49.466;11.086;2023-03-23T14:48:45;1.90;;;1.70;;
1414;SDS011;702;49.466;11.086;2023-03-23T14:51:16;3.63;;;2.20;;
1414;SDS011;702;49.466;11.086;2023-03-23T14:53:47;3.00;;;2.10;;
1414;SDS011;702;49.466;11.086;2023-03-23T14:56:16;2.20;;;2.00;;
1414;SDS011;702;49.466;11.086;2023-03-23T14:58:53;2.30;;;2.10;;
1414;SDS011;702;49.466;11.086;2023-03-23T15:01:22;3.60;;;2.70;;
1414;SDS011;702;49.466;11.086;2023-03-23T15:03:55;2.27;;;2.07;;
1414;SDS011;702;49.466;11.086;2023-03-23T15:06:26;3.47;;;2.13;;
1414;SDS011;702;49.466;11.086;2023-03-23T15:08:58;2.70;;;2.50;;
1414;SDS011;702;49.466;11.086;2023-03-23T15:11:28;2.43;;;2.23;;
1414;SDS011;702;49.466;11.086;2023-03-23T15:13:59;2.67;;;2.30;;
1414;SDS011;702;49.466;11.086;2023-03-23T15:16:30;7.13;;;2.67;;
1414;SDS011;702;49.466;11.086;2023-03-23T15:19:00;5.33;;;2.13;;
1414;SDS011;702;49.466;11.086;2023-03-23T15:21:31;3.77;;;2.47;;
1414;SDS011;702;49.466;11.086;2023-03-23T15:24:17;2.27;;;2.07;;
1414;SDS011;702;49.466;11.086;2023-03-23T15:26:51;2.33;;;2.10;;
1414;SDS011;702;49.466;11.086;2023-03-23T15:29:20;5.67;;;2.20;;
1414;SDS011;702;49.466;11.086;2023-03-23T15:31:50;1.90;;;1.63;;
1414;SDS011;702;49.466;11.086;2023-03-23T15:34:24;3.90;;;2.30;;
1414;SDS011;702;49.466;11.086;2023-03-23T15:36:57;3.50;;;2.50;;
1414;SDS011;702;49.466;11.086;2023-03-23T15:39:29;2.97;;;2.63;;
1414;SDS011;702;49.466;11.086;2023-03-23T15:41:59;3.33;;;2.70;;
1414;SDS011;702;49.466;11.086;2023-03-23T15:44:30;3.17;;;2.63;;
1414;SDS011;702;49.466;11.086;2023-03-23T15:49:47;3.07;;;2.77;;
1414;SDS011;702;49.466;11.086;2023-03-23T15:52:28;2.43;;;2.23;;
1414;SDS011;702;49.466;11.086;2023-03-23T15:54:57;5.07;;;2.60;;
1414;SDS011;702;49.466;11.086;2023-03-23T15:57:24;6.93;;;3.50;;